sensor_id;sensor_type;location;lat;lon;timestamp;pressure;altitude;pressure_sealevel;temperature;humidity
57900;BME280;60605;53.716;19.940;2022-12-29T00:01:28;99782.12;;;5.48;100.00
57900;BME280;60605;53.716;19.940;2022-12-29T00:06:31;99768.89;;;5.48;100.00
57900;BME280;60605;53.716;19.940;2022-12-29T00:11:35;99766.38;;;5.48;100.00
57900;BME280;60605;53.716;19.940;2022-12-29T00:16:43;99764.53;;;5.49;100.00
57900;BME280;60605;53.716;19.940;2022-12-29T00:21:47;99771.90;;;5.50;100.00
57900;BME280;60605;53.716;19.940;2022-12-29T00:27:11;99764.79;;;5.52;100.00
57900;BME280;60605;53.716;19.940;2022-12-29T00:32:35;99766.86;;;5.55;100.00
57900;BME280;60605;53.716;19.940;2022-12-29T00:38:01;99757.90;;;5.58;100.00
57900;BME280;60605;53.716;19.940;2022-12-29T00:43:25;99759.88;;;5.62;100.00
57900;BME280;60605;53.716;19.940;2022-12-29T00:48:47;99757.02;;;5.64;100.00
57900;BME280;60605;53.716;19.940;2022-12-29T00:54:09;99755.19;;;5.65;100.00
57900;BME280;60605;53.716;19.940;2022-12-29T00:59:13;99751.21;;;5.64;100.00
57900;BME280;60605;53.716;19.940;2022-12-29T01:04:16;99753.15;;;5.62;100.00
57900;BME280;60605;53.716;19.940;2022-12-29T01:09:20;99753.57;;;5.59;100.00
57900;BME280;60605;53.716;19.940;2022-12-29T01:14:42;99747.75;;;5.57;100.00
57900;BME280;60605;53.716;19.940;2022-12-29T01:19:46;99744.91;;;5.55;100.00
57900;BME280;60605;53.716;19.940;2022-12-29T01:24:49;99739.08;;;5.53;100.00
57900;BME280;60605;53.716;19.940;2022-12-29T01:29:53;99733.84;;;5.50;100.00
57900;BME280;60605;53.716;19.940;2022-12-29T01:34:56;99726.45;;;5.47;100.00
57900;BME280;60605;53.716;19.940;2022-12-29T01:39:59;99720.27;;;5.44;100.00
57900;BME280;60605;53.716;19.940;2022-12-29T01:45:08;99710.63;;;5.41;100.00
57900;BME280;60605;53.716;19.940;2022-12-29T01:50:26;99705.33;;;5.39;100.00
57900;BME280;60605;53.716;19.940;2022-12-29T01:55:36;99703.99;;;5.38;100.00
57900;BME280;60605;53.716;19.940;2022-12-29T02:00:40;99701.00;;;5.38;100.00
57900;BME280;60605;53.716;19.940;2022-12-29T02:05:57;99698.61;;;5.37;100.00
57900;BME280;60605;53.716;19.940;2022-12-29T02:11:03;99699.64;;;5.36;100.00
57900;BME280;60605;53.716;19.940;2022-12-29T02:16:14;99699.58;;;5.34;100.00
57900;BME280;60605;53.716;19.940;2022-12-29T02:38:17;99688.31;;;5.36;100.00
57900;BME280;60605;53.716;19.940;2022-12-29T02:43:38;99675.31;;;5.36;100.00
57900;BME280;60605;53.716;19.940;2022-12-29T02:48:52;99664.05;;;5.38;100.00
57900;BME280;60605;53.716;19.940;2022-12-29T02:53:58;99664.38;;;5.38;100.00
57900;BME280;60605;53.716;19.940;2022-12-29T02:59:21;99678.48;;;5.38;100.00
57900;BME280;60605;53.716;19.940;2022-12-29T03:15:07;99673.77;;;5.42;100.00
57900;BME280;60605;53.716;19.940;2022-12-29T03:20:55;99670.34;;;5.43;100.00
57900;BME280;60605;53.716;19.940;2022-12-29T03:26:05;99656.77;;;5.44;100.00
57900;BME280;60605;53.716;19.940;2022-12-29T03:31:10;99653.73;;;5.44;100.00
57900;BME280;60605;53.716;19.940;2022-12-29T03:36:23;99664.92;;;5.44;100.00
57900;BME280;60605;53.716;19.940;2022-12-29T03:41:31;99659.94;;;5.44;100.00
57900;BME280;60605;53.716;19.940;2022-12-29T03:46:36;99640.92;;;5.43;100.00
57900;BME280;60605;53.716;19.940;2022-12-29T03:51:39;99624.23;;;5.41;100.00
57900;BME280;60605;53.716;19.940;2022-12-29T03:56:42;99620.14;;;5.40;100.00
57900;BME280;60605;53.716;19.940;2022-12-29T04:01:45;99638.42;;;5.37;100.00
57900;BME280;60605;53.716;19.940;2022-12-29T04:06:49;99645.70;;;5.33;100.00
57900;BME280;60605;53.716;19.940;2022-12-29T04:11:52;99631.71;;;5.29;100.00
57900;BME280;60605;53.716;19.940;2022-12-29T04:16:55;99632.62;;;5.25;100.00
57900;BME280;60605;53.716;19.940;2022-12-29T04:21:59;99619.50;;;5.21;100.00
57900;BME280;60605;53.716;19.940;2022-12-29T04:27:02;99611.80;;;5.20;100.00
57900;BME280;60605;53.716;19.940;2022-12-29T04:32:05;99601.35;;;5.20;100.00
57900;BME280;60605;53.716;19.940;2022-12-29T04:37:09;99597.17;;;5.19;100.00
57900;BME280;60605;53.716;19.940;2022-12-29T04:42:12;99600.04;;;5.19;100.00
57900;BME280;60605;53.716;19.940;2022-12-29T04:47:16;99604.55;;;5.18;100.00
57900;BME280;60605;53.716;19.940;2022-12-29T04:52:20;99609.55;;;5.18;100.00
57900;BME280;60605;53.716;19.940;2022-12-29T04:57:23;99610.80;;;5.19;100.00
57900;BME280;60605;53.716;19.940;2022-12-29T05:02:27;99608.55;;;5.21;100.00
57900;BME280;60605;53.716;19.940;2022-12-29T05:07:31;99603.96;;;5.21;100.00
57900;BME280;60605;53.716;19.940;2022-12-29T05:12:37;99598.17;;;5.20;100.00
57900;BME280;60605;53.716;19.940;2022-12-29T05:17:40;99594.45;;;5.20;100.00
57900;BME280;60605;53.716;19.940;2022-12-29T05:22:45;99589.06;;;5.21;100.00
57900;BME280;60605;53.716;19.940;2022-12-29T05:27:48;99584.15;;;5.23;100.00
57900;BME280;60605;53.716;19.940;2022-12-29T05:32:51;99576.50;;;5.25;100.00
57900;BME280;60605;53.716;19.940;2022-12-29T05:37:55;99567.97;;;5.27;100.00
57900;BME280;60605;53.716;19.940;2022-12-29T05:42:58;99559.09;;;5.29;100.00
57900;BME280;60605;53.716;19.940;2022-12-29T05:48:01;99563.70;;;5.29;100.00
57900;BME280;60605;53.716;19.940;2022-12-29T05:53:05;99568.16;;;5.29;100.00
57900;BME280;60605;53.716;19.940;2022-12-29T05:58:09;99571.45;;;5.30;100.00
57900;BME280;60605;53.716;19.940;2022-12-29T06:03:12;99562.11;;;5.31;100.00
57900;BME280;60605;53.716;19.940;2022-12-29T06:08:16;99561.23;;;5.33;100.00
57900;BME280;60605;53.716;19.940;2022-12-29T06:13:19;99551.86;;;5.35;100.00
57900;BME280;60605;53.716;19.940;2022-12-29T06:18:22;99546.52;;;5.37;100.00
57900;BME280;60605;53.716;19.940;2022-12-29T06:23:26;99548.23;;;5.38;100.00
57900;BME280;60605;53.716;19.940;2022-12-29T06:28:30;99541.72;;;5.39;100.00
57900;BME280;60605;53.716;19.940;2022-12-29T06:33:34;99533.90;;;5.40;100.00
57900;BME280;60605;53.716;19.940;2022-12-29T06:38:37;99526.20;;;5.39;100.00
57900;BME280;60605;53.716;19.940;2022-12-29T06:43:40;99519.55;;;5.36;100.00
57900;BME280;60605;53.716;19.940;2022-12-29T06:48:43;99520.05;;;5.31;100.00
57900;BME280;60605;53.716;19.940;2022-12-29T06:53:47;99516.89;;;5.20;100.00
57900;BME280;60605;53.716;19.940;2022-12-29T06:58:50;99519.23;;;5.10;100.00
57900;BME280;60605;53.716;19.940;2022-12-29T07:03:53;99522.36;;;5.03;100.00
57900;BME280;60605;53.716;19.940;2022-12-29T07:08:56;99524.47;;;5.03;100.00
57900;BME280;60605;53.716;19.940;2022-12-29T07:14:00;99523.63;;;5.09;100.00
57900;BME280;60605;53.716;19.940;2022-12-29T07:19:04;99527.42;;;5.17;100.00
57900;BME280;60605;53.716;19.940;2022-12-29T07:24:07;99524.86;;;5.28;100.00
57900;BME280;60605;53.716;19.940;2022-12-29T07:29:12;99526.89;;;5.37;100.00
57900;BME280;60605;53.716;19.940;2022-12-29T07:34:15;99532.86;;;5.43;100.00
57900;BME280;60605;53.716;19.940;2022-12-29T07:39:18;99532.64;;;5.48;100.00
57900;BME280;60605;53.716;19.940;2022-12-29T07:44:22;99525.63;;;5.53;100.00
57900;BME280;60605;53.716;19.940;2022-12-29T07:49:25;99517.08;;;5.59;100.00
57900;BME280;60605;53.716;19.940;2022-12-29T07:54:28;99522.02;;;5.67;100.00
57900;BME280;60605;53.716;19.940;2022-12-29T07:59:32;99533.34;;;5.73;100.00
57900;BME280;60605;53.716;19.940;2022-12-29T08:04:35;99546.41;;;5.77;100.00
57900;BME280;60605;53.716;19.940;2022-12-29T08:09:38;99558.64;;;5.81;100.00
57900;BME280;60605;53.716;19.940;2022-12-29T08:14:42;99549.14;;;5.84;100.00
57900;BME280;60605;53.716;19.940;2022-12-29T08:19:45;99550.31;;;5.89;100.00
57900;BME280;60605;53.716;19.940;2022-12-29T08:24:48;99540.27;;;5.96;100.00
57900;BME280;60605;53.716;19.940;2022-12-29T08:29:51;99533.96;;;6.06;100.00
57900;BME280;60605;53.716;19.940;2022-12-29T08:34:55;99545.90;;;6.15;100.00
57900;BME280;60605;53.716;19.940;2022-12-29T08:39:58;99543.95;;;6.22;100.00
57900;BME280;60605;53.716;19.940;2022-12-29T08:45:03;99544.80;;;6.32;100.00
57900;BME280;60605;53.716;19.940;2022-12-29T08:50:07;99535.48;;;6.39;100.00
57900;BME280;60605;53.716;19.940;2022-12-29T08:55:11;99541.84;;;6.43;100.00
57900;BME280;60605;53.716;19.940;2022-12-29T09:00:16;99540.80;;;6.44;100.00
57900;BME280;60605;53.716;19.940;2022-12-29T09:05:20;99540.13;;;6.46;100.00
57900;BME280;60605;53.716;19.940;2022-12-29T09:10:23;99538.41;;;6.52;100.00
57900;BME280;60605;53.716;19.940;2022-12-29T09:15:26;99521.56;;;6.63;100.00
57900;BME280;60605;53.716;19.940;2022-12-29T09:20:29;99518.00;;;6.87;100.00
57900;BME280;60605;53.716;19.940;2022-12-29T09:25:33;99508.48;;;7.28;100.00
57900;BME280;60605;53.716;19.940;2022-12-29T09:30:37;99520.95;;;7.54;100.00
57900;BME280;60605;53.716;19.940;2022-12-29T09:35:44;99522.20;;;7.58;100.00
57900;BME280;60605;53.716;19.940;2022-12-29T09:40:56;99520.23;;;7.53;100.00
57900;BME280;60605;53.716;19.940;2022-12-29T09:51:15;99506.23;;;7.38;100.00
57900;BME280;60605;53.716;19.940;2022-12-29T09:56:21;99495.13;;;7.37;100.00
57900;BME280;60605;53.716;19.940;2022-12-29T10:01:41;99494.52;;;7.40;100.00
57900;BME280;60605;53.716;19.940;2022-12-29T10:07:15;99492.65;;;7.44;100.00
57900;BME280;60605;53.716;19.940;2022-12-29T10:13:13;99493.92;;;7.49;100.00
57900;BME280;60605;53.716;19.940;2022-12-29T10:23:59;99480.00;;;7.53;100.00
57900;BME280;60605;53.716;19.940;2022-12-29T10:29:26;99465.89;;;7.78;100.00
57900;BME280;60605;53.716;19.940;2022-12-29T10:34:32;99464.19;;;8.14;100.00
57900;BME280;60605;53.716;19.940;2022-12-29T10:39:43;99450.00;;;8.29;100.00
57900;BME280;60605;53.716;19.940;2022-12-29T10:44:48;99453.09;;;8.54;100.00
57900;BME280;60605;53.716;19.940;2022-12-29T10:49:51;99453.13;;;8.73;100.00
57900;BME280;60605;53.716;19.940;2022-12-29T10:54:59;99451.30;;;8.80;100.00
57900;BME280;60605;53.716;19.940;2022-12-29T11:00:18;99440.98;;;8.80;100.00
57900;BME280;60605;53.716;19.940;2022-12-29T11:05:37;99439.30;;;8.76;100.00
57900;BME280;60605;53.716;19.940;2022-12-29T11:10:43;99442.90;;;8.70;100.00
57900;BME280;60605;53.716;19.940;2022-12-29T11:15:49;99451.11;;;8.64;100.00
57900;BME280;60605;53.716;19.940;2022-12-29T11:20:56;99453.30;;;8.56;100.00
57900;BME280;60605;53.716;19.940;2022-12-29T11:26:21;99455.29;;;8.48;100.00
57900;BME280;60605;53.716;19.940;2022-12-29T11:31:29;99446.23;;;8.38;100.00
57900;BME280;60605;53.716;19.940;2022-12-29T11:36:34;99435.61;;;8.30;100.00
57900;BME280;60605;53.716;19.940;2022-12-29T11:41:38;99433.27;;;8.33;100.00
57900;BME280;60605;53.716;19.940;2022-12-29T11:46:46;99428.64;;;8.37;100.00
57900;BME280;60605;53.716;19.940;2022-12-29T11:51:53;99431.71;;;8.39;100.00
57900;BME280;60605;53.716;19.940;2022-12-29T11:57:13;99435.93;;;8.33;100.00
57900;BME280;60605;53.716;19.940;2022-12-29T12:02:31;99438.42;;;8.26;100.00
57900;BME280;60605;53.716;19.940;2022-12-29T12:07:48;99431.99;;;8.16;100.00
57900;BME280;60605;53.716;19.940;2022-12-29T12:18:18;99425.30;;;8.08;100.00
57900;BME280;60605;53.716;19.940;2022-12-29T12:33:47;99396.55;;;8.28;100.00
57900;BME280;60605;53.716;19.940;2022-12-29T13:00:53;99405.54;;;8.17;100.00
57900;BME280;60605;53.716;19.940;2022-12-29T13:22:53;99425.48;;;7.98;100.00
57900;BME280;60605;53.716;19.940;2022-12-29T13:38:37;99416.95;;;7.77;100.00
57900;BME280;60605;53.716;19.940;2022-12-29T13:43:43;99421.20;;;7.76;100.00
57900;BME280;60605;53.716;19.940;2022-12-29T13:48:53;99422.35;;;7.73;100.00
57900;BME280;60605;53.716;19.940;2022-12-29T13:59:52;99420.09;;;7.68;100.00
57900;BME280;60605;53.716;19.940;2022-12-29T14:05:03;99420.41;;;7.66;100.00
57900;BME280;60605;53.716;19.940;2022-12-29T14:15:41;99412.02;;;7.68;100.00
57900;BME280;60605;53.716;19.940;2022-12-29T14:21:17;99416.34;;;7.71;100.00
57900;BME280;60605;53.716;19.940;2022-12-29T14:47:06;99424.14;;;7.85;100.00
57900;BME280;60605;53.716;19.940;2022-12-29T14:52:26;99420.45;;;7.86;100.00
57900;BME280;60605;53.716;19.940;2022-12-29T14:57:38;99425.64;;;7.89;100.00
57900;BME280;60605;53.716;19.940;2022-12-29T15:02:47;99428.79;;;7.92;100.00
57900;BME280;60605;53.716;19.940;2022-12-29T15:07:53;99427.78;;;7.94;100.00
57900;BME280;60605;53.716;19.940;2022-12-29T15:13:04;99431.11;;;7.98;100.00
57900;BME280;60605;53.716;19.940;2022-12-29T15:18:24;99434.66;;;8.00;100.00
57900;BME280;60605;53.716;19.940;2022-12-29T15:23:29;99434.14;;;7.97;100.00
57900;BME280;60605;53.716;19.940;2022-12-29T15:28:52;99427.00;;;7.95;100.00
57900;BME280;60605;53.716;19.940;2022-12-29T15:34:11;99425.96;;;7.95;100.00
57900;BME280;60605;53.716;19.940;2022-12-29T15:39:19;99432.41;;;7.94;100.00
57900;BME280;60605;53.716;19.940;2022-12-29T15:44:36;99432.84;;;7.92;100.00
57900;BME280;60605;53.716;19.940;2022-12-29T15:49:47;99428.55;;;7.86;100.00
57900;BME280;60605;53.716;19.940;2022-12-29T15:54:52;99420.38;;;7.73;100.00
57900;BME280;60605;53.716;19.940;2022-12-29T15:59:56;99419.46;;;7.60;100.00
57900;BME280;60605;53.716;19.940;2022-12-29T16:05:00;99420.58;;;7.47;100.00
57900;BME280;60605;53.716;19.940;2022-12-29T16:15:34;99434.83;;;7.28;100.00
57900;BME280;60605;53.716;19.940;2022-12-29T16:20:40;99429.85;;;7.15;100.00
57900;BME280;60605;53.716;19.940;2022-12-29T16:25:44;99431.70;;;7.11;100.00
57900;BME280;60605;53.716;19.940;2022-12-29T16:31:01;99432.32;;;7.10;100.00
57900;BME280;60605;53.716;19.940;2022-12-29T16:41:34;99436.60;;;7.11;100.00
57900;BME280;60605;53.716;19.940;2022-12-29T16:46:44;99436.38;;;7.14;100.00
57900;BME280;60605;53.716;19.940;2022-12-29T16:51:48;99438.52;;;7.15;100.00
57900;BME280;60605;53.716;19.940;2022-12-29T16:56:53;99441.50;;;7.16;100.00
57900;BME280;60605;53.716;19.940;2022-12-29T17:01:59;99443.59;;;7.18;100.00
57900;BME280;60605;53.716;19.940;2022-12-29T17:07:16;99444.81;;;7.24;100.00
57900;BME280;60605;53.716;19.940;2022-12-29T17:12:24;99456.65;;;7.33;100.00
57900;BME280;60605;53.716;19.940;2022-12-29T17:17:44;99452.80;;;7.38;100.00
57900;BME280;60605;53.716;19.940;2022-12-29T17:22:49;99452.44;;;7.40;100.00
57900;BME280;60605;53.716;19.940;2022-12-29T17:27:58;99449.98;;;7.39;100.00
57900;BME280;60605;53.716;19.940;2022-12-29T17:33:09;99442.66;;;7.40;100.00
57900;BME280;60605;53.716;19.940;2022-12-29T17:38:28;99447.59;;;7.44;100.00
57900;BME280;60605;53.716;19.940;2022-12-29T17:43:31;99450.46;;;7.47;100.00
57900;BME280;60605;53.716;19.940;2022-12-29T17:48:38;99444.23;;;7.49;100.00
57900;BME280;60605;53.716;19.940;2022-12-29T17:53:42;99447.70;;;7.51;100.00
57900;BME280;60605;53.716;19.940;2022-12-29T17:58:45;99448.34;;;7.54;100.00
57900;BME280;60605;53.716;19.940;2022-12-29T18:03:49;99444.83;;;7.57;100.00
57900;BME280;60605;53.716;19.940;2022-12-29T18:08:53;99450.91;;;7.63;100.00
57900;BME280;60605;53.716;19.940;2022-12-29T18:13:57;99455.51;;;7.69;100.00
57900;BME280;60605;53.716;19.940;2022-12-29T18:19:01;99473.52;;;7.73;100.00
57900;BME280;60605;53.716;19.940;2022-12-29T18:24:05;99470.85;;;7.73;100.00
57900;BME280;60605;53.716;19.940;2022-12-29T18:29:08;99480.44;;;7.69;100.00
57900;BME280;60605;53.716;19.940;2022-12-29T18:34:12;99486.68;;;7.63;100.00
57900;BME280;60605;53.716;19.940;2022-12-29T18:39:16;99493.16;;;7.57;100.00
57900;BME280;60605;53.716;19.940;2022-12-29T18:44:19;99502.38;;;7.52;100.00
57900;BME280;60605;53.716;19.940;2022-12-29T18:49:23;99504.64;;;7.47;100.00
57900;BME280;60605;53.716;19.940;2022-12-29T18:54:30;99504.84;;;7.43;100.00
57900;BME280;60605;53.716;19.940;2022-12-29T18:59:34;99497.92;;;7.41;100.00
57900;BME280;60605;53.716;19.940;2022-12-29T19:04:37;99502.70;;;7.40;100.00
57900;BME280;60605;53.716;19.940;2022-12-29T19:09:41;99512.92;;;7.37;100.00
57900;BME280;60605;53.716;19.940;2022-12-29T19:14:44;99499.09;;;7.33;100.00
57900;BME280;60605;53.716;19.940;2022-12-29T19:19:48;99492.44;;;7.29;100.00
57900;BME280;60605;53.716;19.940;2022-12-29T19:24:51;99494.86;;;7.24;100.00
57900;BME280;60605;53.716;19.940;2022-12-29T19:30:02;99499.21;;;7.19;100.00
57900;BME280;60605;53.716;19.940;2022-12-29T19:35:10;99503.41;;;7.15;100.00
57900;BME280;60605;53.716;19.940;2022-12-29T19:40:18;99506.95;;;7.11;100.00
57900;BME280;60605;53.716;19.940;2022-12-29T19:45:22;99506.83;;;7.09;100.00
57900;BME280;60605;53.716;19.940;2022-12-29T19:50:28;99509.59;;;7.08;100.00
57900;BME280;60605;53.716;19.940;2022-12-29T19:55:31;99506.77;;;7.06;100.00
57900;BME280;60605;53.716;19.940;2022-12-29T20:00:46;99511.83;;;7.03;100.00
57900;BME280;60605;53.716;19.940;2022-12-29T20:05:50;99519.00;;;7.00;100.00
57900;BME280;60605;53.716;19.940;2022-12-29T20:11:00;99520.10;;;6.98;100.00
57900;BME280;60605;53.716;19.940;2022-12-29T20:16:07;99520.05;;;6.97;100.00
57900;BME280;60605;53.716;19.940;2022-12-29T20:21:19;99523.84;;;6.96;100.00
57900;BME280;60605;53.716;19.940;2022-12-29T20:26:26;99526.98;;;6.95;100.00
57900;BME280;60605;53.716;19.940;2022-12-29T20:31:33;99525.86;;;6.92;100.00
57900;BME280;60605;53.716;19.940;2022-12-29T20:36:44;99527.20;;;6.84;100.00
57900;BME280;60605;53.716;19.940;2022-12-29T20:41:48;99528.77;;;6.68;100.00
57900;BME280;60605;53.716;19.940;2022-12-29T20:46:52;99524.69;;;6.48;100.00
57900;BME280;60605;53.716;19.940;2022-12-29T20:51:55;99515.27;;;6.28;100.00
57900;BME280;60605;53.716;19.940;2022-12-29T20:57:08;99517.27;;;6.09;100.00
57900;BME280;60605;53.716;19.940;2022-12-29T21:02:18;99518.91;;;5.95;100.00
57900;BME280;60605;53.716;19.940;2022-12-29T21:07:23;99516.73;;;5.86;100.00
57900;BME280;60605;53.716;19.940;2022-12-29T21:12:28;99514.81;;;5.84;100.00
57900;BME280;60605;53.716;19.940;2022-12-29T21:17:31;99524.02;;;5.86;100.00
57900;BME280;60605;53.716;19.940;2022-12-29T21:22:36;99526.11;;;5.88;100.00
57900;BME280;60605;53.716;19.940;2022-12-29T21:27:39;99529.85;;;5.92;100.00
57900;BME280;60605;53.716;19.940;2022-12-29T21:32:47;99531.78;;;5.96;100.00
57900;BME280;60605;53.716;19.940;2022-12-29T21:37:51;99530.59;;;6.01;100.00
57900;BME280;60605;53.716;19.940;2022-12-29T21:42:57;99528.06;;;6.05;100.00
57900;BME280;60605;53.716;19.940;2022-12-29T21:48:03;99532.81;;;6.07;100.00
57900;BME280;60605;53.716;19.940;2022-12-29T21:53:32;99533.52;;;6.09;100.00
57900;BME280;60605;53.716;19.940;2022-12-29T21:58:45;99532.97;;;6.09;100.00
57900;BME280;60605;53.716;19.940;2022-12-29T22:04:14;99529.55;;;6.08;100.00
57900;BME280;60605;53.716;19.940;2022-12-29T22:09:36;99525.92;;;6.07;100.00
57900;BME280;60605;53.716;19.940;2022-12-29T22:14:58;99526.67;;;6.10;100.00
57900;BME280;60605;53.716;19.940;2022-12-29T22:20:01;99530.27;;;6.17;100.00
57900;BME280;60605;53.716;19.940;2022-12-29T22:25:06;99538.84;;;6.28;100.00
57900;BME280;60605;53.716;19.940;2022-12-29T22:30:11;99541.35;;;6.37;100.00
57900;BME280;60605;53.716;19.940;2022-12-29T22:35:18;99547.88;;;6.45;100.00
57900;BME280;60605;53.716;19.940;2022-12-29T22:40:21;99549.90;;;6.49;100.00
57900;BME280;60605;53.716;19.940;2022-12-29T22:45:25;99551.67;;;6.55;100.00
57900;BME280;60605;53.716;19.940;2022-12-29T22:50:28;99552.73;;;6.58;100.00
57900;BME280;60605;53.716;19.940;2022-12-29T22:55:32;99559.08;;;6.57;100.00
57900;BME280;60605;53.716;19.940;2022-12-29T23:00:36;99563.81;;;6.50;100.00
57900;BME280;60605;53.716;19.940;2022-12-29T23:05:40;99567.17;;;6.45;100.00
57900;BME280;60605;53.716;19.940;2022-12-29T23:10:43;99572.91;;;6.37;100.00
57900;BME280;60605;53.716;19.940;2022-12-29T23:15:46;99578.35;;;6.28;100.00
57900;BME280;60605;53.716;19.940;2022-12-29T23:20:51;99586.95;;;6.23;100.00
57900;BME280;60605;53.716;19.940;2022-12-29T23:25:55;99587.59;;;6.22;100.00
57900;BME280;60605;53.716;19.940;2022-12-29T23:30:58;99586.73;;;6.23;100.00
57900;BME280;60605;53.716;19.940;2022-12-29T23:36:02;99580.44;;;6.28;100.00
57900;BME280;60605;53.716;19.940;2022-12-29T23:41:06;99574.05;;;6.36;100.00
57900;BME280;60605;53.716;19.940;2022-12-29T23:46:13;99579.84;;;6.44;100.00
57900;BME280;60605;53.716;19.940;2022-12-29T23:51:17;99585.27;;;6.51;100.00
57900;BME280;60605;53.716;19.940;2022-12-29T23:56:21;99590.57;;;6.56;100.00
